createdAt,value
2023-05-15T00:07:44.742Z,101462.91
2023-05-15T00:18:06.122Z,101447.16
2023-05-15T00:28:27.582Z,101442.97
2023-05-15T00:38:48.950Z,101450.03
2023-05-15T00:49:13.505Z,101438.72
2023-05-15T00:59:35.160Z,101437.59
2023-05-15T01:09:57.228Z,101417.09
2023-05-15T01:20:19.081Z,101413.06
2023-05-15T01:30:42.716Z,101412.66
2023-05-15T01:41:36.752Z,101422.41
2023-05-15T01:52:09.023Z,101416.03
2023-05-15T02:02:30.739Z,101410.25
2023-05-15T02:12:53.013Z,101399.97
2023-05-15T02:23:14.419Z,101392.69
2023-05-15T02:33:42.319Z,101391.56
2023-05-15T02:44:03.852Z,101380.72
2023-05-15T02:54:25.260Z,101401.69
2023-05-15T03:04:48.057Z,101405.19
2023-05-15T03:15:09.591Z,101391.97
2023-05-15T03:25:31.293Z,101388.16
2023-05-15T03:35:52.787Z,101388.63
2023-05-15T03:46:15.707Z,101391.19
2023-05-15T03:56:37.149Z,101393.97
2023-05-15T04:06:58.514Z,101391.81
2023-05-15T04:17:19.885Z,101390.03
2023-05-15T04:27:41.686Z,101389.63
2023-05-15T04:38:03.290Z,101392.19
2023-05-15T04:48:24.710Z,101395.72
2023-05-15T04:58:46.105Z,101393.34
2023-05-15T05:09:07.466Z,101400.25
2023-05-15T05:19:28.813Z,101404.88
2023-05-15T05:29:50.347Z,101390.03
2023-05-15T05:40:11.892Z,101396.94
2023-05-15T05:50:33.310Z,101402.44
2023-05-15T06:00:54.788Z,101392.41
2023-05-15T06:11:16.155Z,101398.28
2023-05-15T06:21:37.545Z,101405.38
2023-05-15T06:31:58.893Z,101406.66
2023-05-15T06:42:20.244Z,101397.31
2023-05-15T06:52:41.678Z,101396.94
2023-05-15T07:03:03.150Z,101407.06
2023-05-15T07:13:24.682Z,101392.38
2023-05-15T07:23:46.130Z,101388.72
2023-05-15T07:34:07.512Z,101383.59
2023-05-15T07:44:28.877Z,101374.56
2023-05-15T07:54:50.289Z,101375.34
2023-05-15T08:05:11.641Z,101375.94
2023-05-15T08:15:33.110Z,101372.72
2023-05-15T08:25:54.630Z,101380.66
2023-05-15T08:36:18.190Z,101367.13
2023-05-15T08:46:40.091Z,101358.22
2023-05-15T08:57:02.283Z,101352.94
2023-05-15T09:07:23.924Z,101351.28
2023-05-15T09:17:45.911Z,101343.47
2023-05-15T09:28:10.632Z,101340.34
2023-05-15T09:38:34.510Z,101349.28
2023-05-15T09:48:56.029Z,101348.56
2023-05-15T09:59:18.617Z,101329.59
2023-05-15T10:09:40.033Z,101329.97
2023-05-15T10:20:01.972Z,101332.44
2023-05-15T10:30:24.241Z,101328.66
2023-05-15T10:40:46.535Z,101337.66
2023-05-15T10:51:17.842Z,101329.84
2023-05-15T11:01:39.983Z,101320.13
2023-05-15T11:12:02.189Z,101314.16
2023-05-15T11:22:35.887Z,101317.50
2023-05-15T11:32:59.823Z,101299.09
2023-05-15T11:43:31.601Z,101282.53
2023-05-15T11:53:53.921Z,101273.50
2023-05-15T12:04:16.398Z,101281.41
2023-05-15T12:14:39.559Z,101272.00
2023-05-15T12:25:01.263Z,101266.41
2023-05-15T12:35:22.842Z,101264.34
2023-05-15T12:45:45.642Z,101259.44
2023-05-15T12:56:07.595Z,101251.38
2023-05-15T13:06:42.341Z,101262.81
2023-05-15T13:17:08.164Z,101249.09
2023-05-15T13:27:29.630Z,101243.09
2023-05-15T13:37:51.241Z,101257.38
2023-05-15T13:48:12.657Z,101248.00
2023-05-15T13:58:34.079Z,101250.06
2023-05-15T14:08:55.520Z,101243.50
2023-05-15T14:19:17.139Z,101239.66
2023-05-15T14:29:39.446Z,101255.31
2023-05-15T14:40:00.816Z,101252.63
2023-05-15T14:50:22.219Z,101266.78
2023-05-15T15:00:44.835Z,101262.44
2023-05-15T15:11:07.068Z,101262.59
2023-05-15T15:21:28.465Z,101266.66
2023-05-15T15:31:49.843Z,101274.81
2023-05-15T15:42:11.235Z,101271.09
2023-05-15T15:52:32.601Z,101278.91
2023-05-15T16:02:54.079Z,101292.81
2023-05-15T16:13:16.135Z,101308.72
2023-05-15T16:23:37.697Z,101305.91
2023-05-15T16:34:00.930Z,101317.25
2023-05-15T16:44:24.261Z,101328.47
2023-05-15T16:54:45.780Z,101338.84
2023-05-15T17:05:08.879Z,101366.44
2023-05-15T17:15:30.502Z,101382.63
2023-05-15T17:25:51.911Z,101408.38
2023-05-15T17:36:13.805Z,101439.31
2023-05-15T17:46:35.288Z,101450.34
2023-05-15T17:56:56.687Z,101471.06
2023-05-15T18:07:18.033Z,101485.38
2023-05-15T18:17:39.498Z,101481.41
2023-05-15T18:28:00.883Z,101493.56
2023-05-15T18:38:22.395Z,101504.63
2023-05-15T18:48:43.781Z,101529.06
2023-05-15T18:59:05.251Z,101534.00
2023-05-15T19:09:26.841Z,101540.59
2023-05-15T19:19:48.276Z,101545.03
2023-05-15T19:30:09.984Z,101553.78
2023-05-15T19:40:31.562Z,101574.84
2023-05-15T19:50:53.110Z,101576.91
2023-05-15T20:01:14.564Z,101584.31
2023-05-15T20:11:36.099Z,101577.38
2023-05-15T20:21:57.545Z,101587.78
2023-05-15T20:32:19.101Z,101594.16
2023-05-15T20:42:40.476Z,101590.03
2023-05-15T20:53:01.969Z,101595.41
2023-05-15T21:03:23.463Z,101604.84
2023-05-15T21:13:45.030Z,101608.47
2023-05-15T21:24:07.125Z,101619.78
2023-05-15T21:34:28.466Z,101620.72
2023-05-15T21:44:49.830Z,101625.69
2023-05-15T21:55:11.398Z,101641.47
2023-05-15T22:05:32.806Z,101646.13
2023-05-15T22:15:54.264Z,101642.97
2023-05-15T22:26:15.674Z,101658.22
2023-05-15T22:36:37.232Z,101656.09
2023-05-15T22:46:58.955Z,101658.81
2023-05-15T22:57:20.487Z,101655.47
2023-05-15T23:07:41.864Z,101660.25
2023-05-15T23:18:03.338Z,101672.09
2023-05-15T23:28:24.746Z,101669.59
2023-05-15T23:38:46.438Z,101670.63
2023-05-15T23:49:07.851Z,101658.75
2023-05-15T23:59:29.397Z,101677.00
